createdAt,value
2023-05-09T00:00:11.245Z,47.00
2023-05-09T00:02:41.438Z,47.10
2023-05-09T00:05:11.555Z,47.10
2023-05-09T00:07:40.444Z,47.20
2023-05-09T00:10:09.409Z,47.30
2023-05-09T00:12:38.083Z,47.30
2023-05-09T00:15:08.469Z,47.30
2023-05-09T00:17:38.786Z,47.40
2023-05-09T00:20:12.584Z,47.40
2023-05-09T00:22:42.840Z,47.50
2023-05-09T00:25:12.765Z,47.60
2023-05-09T00:27:41.415Z,47.60
2023-05-09T00:30:10.826Z,47.60
2023-05-09T00:32:40.382Z,47.60
2023-05-09T00:35:10.312Z,47.60
2023-05-09T00:37:38.818Z,47.90
2023-05-09T00:40:10.030Z,47.80
2023-05-09T00:42:38.825Z,47.90
2023-05-09T00:45:08.424Z,47.90
2023-05-09T00:47:36.895Z,48.00
2023-05-09T00:50:06.127Z,48.00
2023-05-09T00:52:34.777Z,48.00
2023-05-09T00:55:04.872Z,48.00
2023-05-09T00:57:34.670Z,48.20
2023-05-09T01:00:05.074Z,48.20
2023-05-09T01:02:33.574Z,48.20
2023-05-09T01:05:02.405Z,48.30
2023-05-09T01:07:38.585Z,48.30
2023-05-09T01:10:12.898Z,48.50
2023-05-09T01:12:55.018Z,48.50
2023-05-09T01:15:30.662Z,48.50
2023-05-09T01:18:04.845Z,48.60
2023-05-09T01:20:37.114Z,48.50
2023-05-09T01:23:22.312Z,48.70
2023-05-09T01:26:04.714Z,48.60
2023-05-09T01:29:06.382Z,48.70
2023-05-09T01:31:39.544Z,48.70
2023-05-09T01:34:10.344Z,48.80
2023-05-09T01:36:41.286Z,48.70
2023-05-09T01:39:13.689Z,48.90
2023-05-09T01:41:42.245Z,49.00
2023-05-09T01:44:13.583Z,49.10
2023-05-09T01:46:45.239Z,49.10
2023-05-09T01:49:14.824Z,49.20
2023-05-09T01:51:44.526Z,49.40
2023-05-09T01:54:14.926Z,49.40
2023-05-09T01:56:45.095Z,49.30
2023-05-09T01:59:16.437Z,49.40
2023-05-09T02:01:48.040Z,49.50
2023-05-09T02:04:18.360Z,49.50
2023-05-09T02:06:51.429Z,49.70
2023-05-09T02:09:20.583Z,49.70
2023-05-09T02:11:49.022Z,49.80
2023-05-09T02:14:17.507Z,49.90
2023-05-09T02:16:47.683Z,49.90
2023-05-09T02:19:16.956Z,50.50
2023-05-09T02:21:45.619Z,49.90
2023-05-09T02:24:14.212Z,50.00
2023-05-09T02:26:43.569Z,50.10
2023-05-09T02:29:13.117Z,50.20
2023-05-09T02:31:44.164Z,50.30
2023-05-09T02:34:15.080Z,50.30
2023-05-09T02:36:43.765Z,50.40
2023-05-09T02:39:12.453Z,50.40
2023-05-09T02:41:40.997Z,50.50
2023-05-09T02:44:09.411Z,50.50
2023-05-09T02:46:37.759Z,50.50
2023-05-09T02:49:06.097Z,50.50
2023-05-09T02:51:36.529Z,50.60
2023-05-09T02:54:06.493Z,50.60
2023-05-09T02:56:35.038Z,50.70
2023-05-09T02:59:03.512Z,50.70
2023-05-09T03:01:32.024Z,50.80
2023-05-09T03:04:00.443Z,50.90
2023-05-09T03:06:28.926Z,50.90
2023-05-09T03:08:58.731Z,51.00
2023-05-09T03:11:27.780Z,51.10
2023-05-09T03:13:56.229Z,51.20
2023-05-09T03:16:24.958Z,51.30
2023-05-09T03:18:53.484Z,51.30
2023-05-09T03:21:22.131Z,51.40
2023-05-09T03:23:50.622Z,51.50
2023-05-09T03:26:20.930Z,51.70
2023-05-09T03:28:50.221Z,51.70
2023-05-09T03:31:18.791Z,51.90
2023-05-09T03:33:47.194Z,52.00
2023-05-09T03:36:16.554Z,52.10
2023-05-09T03:38:45.894Z,52.20
2023-05-09T03:41:17.550Z,52.40
2023-05-09T03:43:49.469Z,52.50
2023-05-09T03:46:17.960Z,52.70
2023-05-09T03:48:49.344Z,52.70
2023-05-09T03:51:18.707Z,52.70
2023-05-09T03:53:48.293Z,52.80
2023-05-09T03:56:17.317Z,52.80
2023-05-09T03:58:52.885Z,52.90
2023-05-09T04:01:21.869Z,52.90
2023-05-09T04:03:50.480Z,52.80
2023-05-09T04:06:19.333Z,52.80
2023-05-09T04:08:47.811Z,52.80
2023-05-09T04:11:16.228Z,52.80
2023-05-09T04:13:47.739Z,52.80
2023-05-09T04:16:28.162Z,52.80
2023-05-09T04:18:56.650Z,52.70
2023-05-09T04:21:25.157Z,52.70
2023-05-09T04:23:56.768Z,52.70
2023-05-09T04:26:32.516Z,52.60
2023-05-09T04:29:01.773Z,52.50
2023-05-09T04:31:31.726Z,52.40
2023-05-09T04:34:01.566Z,52.40
2023-05-09T04:36:34.152Z,52.30
2023-05-09T04:39:02.695Z,52.10
2023-05-09T04:41:32.554Z,51.80
2023-05-09T04:44:02.119Z,51.80
2023-05-09T04:46:32.495Z,51.50
2023-05-09T04:49:00.993Z,51.30
2023-05-09T04:51:29.366Z,51.10
2023-05-09T04:53:57.679Z,51.20
2023-05-09T04:56:31.998Z,51.30
2023-05-09T04:59:01.739Z,51.20
2023-05-09T05:01:32.610Z,50.80
2023-05-09T05:04:01.896Z,50.50
2023-05-09T05:06:33.047Z,49.40
2023-05-09T05:09:01.955Z,48.40
2023-05-09T05:11:30.447Z,47.70
2023-05-09T05:13:59.177Z,48.00
2023-05-09T05:16:28.247Z,47.00
2023-05-09T05:18:58.203Z,46.50
2023-05-09T05:21:27.253Z,45.90
2023-05-09T05:23:55.734Z,45.90
2023-05-09T05:26:24.186Z,45.70
2023-05-09T05:28:55.646Z,45.30
2023-05-09T05:31:24.597Z,44.60
2023-05-09T05:33:53.031Z,44.10
2023-05-09T05:36:24.064Z,43.80
2023-05-09T05:38:52.736Z,43.00
2023-05-09T05:41:21.299Z,42.60
2023-05-09T05:43:53.476Z,41.50
2023-05-09T05:46:22.835Z,41.00
2023-05-09T05:48:51.373Z,41.00
2023-05-09T05:51:19.853Z,41.20
2023-05-09T05:53:49.548Z,41.20
2023-05-09T05:56:18.043Z,41.50
2023-05-09T05:58:46.720Z,41.50
2023-05-09T06:01:15.177Z,41.20
2023-05-09T06:03:43.719Z,41.00
2023-05-09T06:06:12.378Z,41.20
2023-05-09T06:08:40.857Z,41.10
2023-05-09T06:11:10.859Z,41.70
2023-05-09T06:13:39.788Z,42.10
2023-05-09T06:16:18.421Z,42.10
2023-05-09T06:18:53.417Z,42.10
2023-05-09T06:21:24.400Z,41.70
2023-05-09T06:26:26.410Z,41.30
2023-05-09T06:28:54.817Z,41.20
2023-05-09T06:31:24.910Z,40.70
2023-05-09T06:33:54.709Z,38.80
2023-05-09T06:36:23.216Z,38.20
2023-05-09T06:38:51.621Z,37.60
2023-05-09T06:41:19.962Z,37.10
2023-05-09T06:43:50.004Z,36.70
2023-05-09T06:46:18.615Z,36.60
2023-05-09T06:48:47.122Z,36.80
2023-05-09T06:51:16.483Z,37.20
2023-05-09T06:53:44.918Z,37.30
2023-05-09T06:56:13.479Z,37.00
2023-05-09T06:58:44.240Z,37.10
2023-05-09T07:01:14.175Z,37.30
2023-05-09T07:03:42.658Z,37.90
2023-05-09T07:06:11.045Z,38.20
2023-05-09T07:08:39.536Z,38.10
2023-05-09T07:11:07.892Z,38.00
2023-05-09T07:13:36.628Z,38.20
2023-05-09T07:16:05.064Z,38.50
2023-05-09T07:18:34.810Z,38.60
2023-05-09T07:21:03.475Z,38.60
2023-05-09T07:23:31.858Z,38.60
2023-05-09T07:26:01.549Z,38.70
2023-05-09T07:28:30.141Z,38.90
2023-05-09T07:30:58.514Z,39.00
2023-05-09T07:33:26.959Z,39.10
2023-05-09T07:35:56.729Z,39.10
2023-05-09T07:38:25.239Z,39.10
2023-05-09T07:40:54.132Z,39.50
2023-05-09T07:43:22.512Z,39.10
2023-05-09T07:45:51.035Z,39.80
2023-05-09T07:48:19.444Z,39.00
2023-05-09T07:50:47.878Z,37.40
2023-05-09T07:53:17.625Z,36.30
2023-05-09T07:55:48.448Z,35.20
2023-05-09T07:58:16.918Z,34.90
2023-05-09T08:00:45.362Z,34.30
2023-05-09T08:03:14.026Z,32.20
2023-05-09T08:05:42.499Z,31.80
2023-05-09T08:08:10.894Z,31.20
2023-05-09T08:10:40.750Z,31.50
2023-05-09T08:13:09.308Z,30.50
2023-05-09T08:15:37.827Z,30.60
2023-05-09T08:18:06.690Z,29.90
2023-05-09T08:20:35.213Z,29.60
2023-05-09T08:23:03.684Z,28.80
2023-05-09T08:25:32.214Z,28.70
2023-05-09T08:28:01.981Z,29.00
2023-05-09T08:30:30.584Z,28.90
2023-05-09T08:32:59.156Z,28.50
2023-05-09T08:35:27.495Z,28.10
2023-05-09T08:37:55.956Z,28.50
2023-05-09T08:40:24.440Z,29.30
2023-05-09T08:42:53.397Z,28.80
2023-05-09T08:45:31.768Z,28.70
2023-05-09T08:48:00.921Z,28.10
2023-05-09T08:50:30.194Z,28.10
2023-05-09T08:52:58.765Z,28.10
2023-05-09T08:55:27.733Z,27.90
2023-05-09T08:57:56.327Z,27.90
2023-05-09T09:00:28.177Z,28.30
2023-05-09T09:03:00.075Z,27.90
2023-05-09T09:05:41.173Z,27.60
2023-05-09T09:08:12.405Z,27.80
2023-05-09T09:10:47.261Z,27.40
2023-05-09T09:13:18.170Z,26.80
2023-05-09T09:15:49.563Z,27.10
2023-05-09T09:18:22.137Z,27.30
2023-05-09T09:20:54.488Z,27.30
2023-05-09T09:23:26.510Z,26.80
2023-05-09T09:26:00.272Z,27.00
2023-05-09T09:28:29.614Z,27.30
2023-05-09T09:30:59.508Z,27.30
2023-05-09T09:33:29.880Z,27.20
2023-05-09T09:35:59.865Z,27.40
2023-05-09T09:38:28.448Z,27.80
2023-05-09T09:40:57.432Z,27.80
2023-05-09T09:43:29.899Z,27.50
2023-05-09T09:46:02.931Z,27.50
2023-05-09T09:48:34.835Z,27.20
2023-05-09T09:51:11.506Z,26.70
2023-05-09T09:53:44.434Z,26.50
2023-05-09T09:56:13.050Z,26.80
2023-05-09T09:58:41.482Z,26.80
2023-05-09T10:01:14.017Z,26.90
2023-05-09T10:03:44.282Z,26.70
2023-05-09T10:06:13.463Z,26.80
2023-05-09T10:08:42.962Z,26.30
2023-05-09T10:11:11.640Z,26.20
2023-05-09T10:13:40.617Z,26.90
2023-05-09T10:16:12.610Z,26.60
2023-05-09T10:18:43.763Z,26.10
2023-05-09T10:21:15.918Z,25.90
2023-05-09T10:23:47.628Z,26.20
2023-05-09T10:26:22.967Z,26.30
2023-05-09T10:28:56.103Z,25.80
2023-05-09T10:31:28.093Z,26.00
2023-05-09T10:33:57.289Z,26.20
2023-05-09T10:36:26.137Z,26.50
2023-05-09T10:38:56.610Z,27.00
2023-05-09T10:41:25.780Z,26.80
2023-05-09T10:43:56.724Z,27.50
2023-05-09T10:46:27.573Z,27.80
2023-05-09T10:48:56.579Z,27.20
2023-05-09T10:51:26.146Z,26.60
2023-05-09T10:53:56.061Z,26.10
2023-05-09T10:56:26.591Z,26.30
2023-05-09T10:58:55.804Z,26.10
2023-05-09T11:01:35.485Z,26.20
2023-05-09T11:04:12.705Z,26.20
2023-05-09T11:06:49.580Z,26.30
2023-05-09T11:09:29.257Z,27.00
2023-05-09T11:11:59.134Z,26.60
2023-05-09T11:14:31.768Z,26.40
2023-05-09T11:17:03.971Z,26.50
2023-05-09T11:19:37.407Z,26.50
2023-05-09T11:22:15.200Z,26.40
2023-05-09T11:24:47.381Z,26.30
2023-05-09T11:27:17.074Z,26.30
2023-05-09T11:29:47.489Z,26.40
2023-05-09T11:32:17.718Z,26.90
2023-05-09T11:34:46.499Z,26.70
2023-05-09T11:37:17.988Z,25.80
2023-05-09T11:40:01.125Z,25.60
2023-05-09T11:42:30.676Z,24.80
2023-05-09T11:45:00.058Z,24.40
2023-05-09T11:47:31.095Z,24.90
2023-05-09T11:49:59.535Z,25.10
2023-05-09T11:52:27.988Z,24.30
2023-05-09T11:54:56.504Z,23.90
2023-05-09T11:57:24.991Z,23.80
2023-05-09T11:59:54.022Z,24.30
2023-05-09T12:02:24.548Z,24.30
2023-05-09T12:04:55.155Z,24.30
2023-05-09T12:07:23.535Z,24.00
2023-05-09T12:09:52.836Z,24.20
2023-05-09T12:12:21.798Z,24.60
2023-05-09T12:14:50.733Z,25.20
2023-05-09T12:17:19.133Z,25.40
2023-05-09T12:19:48.356Z,25.30
2023-05-09T12:22:18.090Z,24.30
2023-05-09T12:24:46.624Z,24.20
2023-05-09T12:27:15.122Z,24.30
2023-05-09T12:29:46.153Z,24.60
2023-05-09T12:32:15.277Z,25.60
2023-05-09T12:34:45.590Z,26.00
2023-05-09T12:37:20.390Z,26.00
2023-05-09T12:40:04.322Z,26.30
2023-05-09T12:42:33.072Z,26.40
2023-05-09T12:45:03.365Z,26.10
2023-05-09T12:47:33.159Z,25.80
2023-05-09T12:50:03.428Z,24.80
2023-05-09T12:52:46.909Z,23.30
2023-05-09T12:55:23.057Z,22.90
2023-05-09T12:58:00.313Z,23.50
2023-05-09T13:00:29.253Z,23.80
2023-05-09T13:02:57.989Z,22.60
2023-05-09T13:05:26.401Z,22.50
2023-05-09T13:07:58.701Z,23.00
2023-05-09T13:10:29.014Z,23.60
2023-05-09T13:12:57.558Z,24.60
2023-05-09T13:15:26.915Z,24.40
2023-05-09T13:17:57.055Z,23.90
2023-05-09T13:20:25.616Z,23.80
2023-05-09T13:22:55.610Z,24.20
2023-05-09T13:25:24.088Z,24.20
2023-05-09T13:27:52.540Z,24.00
2023-05-09T13:30:21.132Z,22.90
2023-05-09T13:32:49.744Z,22.90
2023-05-09T13:35:18.382Z,22.80
2023-05-09T13:37:46.816Z,23.20
2023-05-09T13:40:17.127Z,23.20
2023-05-09T13:42:45.957Z,22.60
2023-05-09T13:45:14.544Z,22.90
2023-05-09T13:47:43.266Z,22.10
2023-05-09T13:50:12.740Z,22.40
2023-05-09T13:52:41.434Z,22.20
2023-05-09T13:55:10.234Z,22.50
2023-05-09T13:57:40.082Z,22.80
2023-05-09T14:00:09.701Z,23.20
2023-05-09T14:02:41.406Z,23.90
2023-05-09T14:05:10.392Z,24.20
2023-05-09T14:07:38.812Z,24.40
2023-05-09T14:10:11.851Z,24.90
2023-05-09T14:12:44.595Z,25.40
2023-05-09T14:15:13.210Z,25.40
2023-05-09T14:17:41.731Z,25.80
2023-05-09T14:20:10.768Z,26.20
2023-05-09T14:22:39.165Z,26.70
2023-05-09T14:25:07.884Z,26.80
2023-05-09T14:27:37.321Z,26.90
2023-05-09T14:30:08.804Z,27.30
2023-05-09T14:32:37.318Z,27.40
2023-05-09T14:35:06.317Z,27.90
2023-05-09T14:37:34.735Z,28.10
2023-05-09T14:40:05.756Z,28.40
2023-05-09T14:42:34.353Z,28.50
2023-05-09T14:45:02.728Z,28.60
2023-05-09T14:47:32.455Z,29.00
2023-05-09T14:50:00.843Z,29.20
2023-05-09T14:52:29.722Z,29.00
2023-05-09T14:55:00.011Z,29.00
2023-05-09T14:57:29.042Z,29.20
2023-05-09T15:00:03.104Z,29.20
2023-05-09T15:02:39.132Z,29.50
2023-05-09T15:05:08.264Z,29.60
2023-05-09T15:07:37.030Z,29.60
2023-05-09T15:10:05.978Z,29.50
2023-05-09T15:12:34.512Z,29.50
2023-05-09T15:15:14.922Z,29.70
2023-05-09T15:17:45.268Z,29.70
2023-05-09T15:20:16.496Z,29.80
2023-05-09T15:22:45.720Z,29.90
2023-05-09T15:25:14.726Z,30.10
2023-05-09T15:27:43.414Z,30.00
2023-05-09T15:30:12.540Z,29.90
2023-05-09T15:32:41.315Z,29.90
2023-05-09T15:35:11.509Z,29.70
2023-05-09T15:37:40.204Z,29.70
2023-05-09T15:40:09.527Z,29.70
2023-05-09T15:42:38.712Z,29.90
2023-05-09T15:45:07.723Z,30.00
2023-05-09T15:47:36.300Z,30.20
2023-05-09T15:50:04.864Z,30.60
2023-05-09T15:52:34.595Z,30.70
2023-05-09T15:55:03.618Z,30.80
2023-05-09T15:57:32.020Z,31.30
2023-05-09T16:00:00.419Z,31.60
2023-05-09T16:02:29.112Z,31.70
2023-05-09T16:04:57.578Z,31.50
2023-05-09T16:07:27.351Z,31.30
2023-05-09T16:09:57.109Z,31.40
2023-05-09T16:12:25.468Z,31.50
2023-05-09T16:14:54.298Z,31.60
2023-05-09T16:17:22.880Z,31.70
2023-05-09T16:19:51.303Z,31.70
2023-05-09T16:22:19.661Z,31.50
2023-05-09T16:24:49.144Z,31.60
2023-05-09T16:27:19.051Z,31.60
2023-05-09T16:29:47.430Z,31.70
2023-05-09T16:32:16.065Z,32.10
2023-05-09T16:34:44.494Z,32.10
2023-05-09T16:37:12.934Z,32.00
2023-05-09T16:39:41.419Z,32.00
2023-05-09T16:42:09.855Z,32.10
2023-05-09T16:44:39.641Z,32.10
2023-05-09T16:47:08.106Z,32.40
2023-05-09T16:49:36.593Z,32.60
2023-05-09T16:52:05.732Z,32.80
2023-05-09T16:54:34.174Z,32.90
2023-05-09T16:57:03.441Z,33.10
2023-05-09T16:59:32.895Z,33.40
2023-05-09T17:02:04.726Z,33.50
2023-05-09T17:04:34.753Z,33.70
2023-05-09T17:07:04.451Z,33.80
2023-05-09T17:09:33.639Z,33.80
2023-05-09T17:12:02.557Z,34.50
2023-05-09T17:14:31.142Z,34.20
2023-05-09T17:16:59.765Z,34.20
2023-05-09T17:19:29.524Z,34.30
2023-05-09T17:21:59.007Z,34.10
2023-05-09T17:24:27.469Z,34.20
2023-05-09T17:26:56.882Z,34.30
2023-05-09T17:29:26.927Z,34.20
2023-05-09T17:31:55.500Z,34.90
2023-05-09T17:34:24.093Z,34.40
2023-05-09T17:36:54.070Z,34.50
2023-05-09T17:39:22.545Z,34.70
2023-05-09T17:41:50.987Z,34.80
2023-05-09T17:44:19.510Z,35.50
2023-05-09T17:46:49.383Z,35.00
2023-05-09T17:49:18.431Z,35.20
2023-05-09T17:51:46.871Z,35.20
2023-05-09T17:54:19.076Z,35.40
2023-05-09T17:56:51.108Z,35.70
2023-05-09T17:59:19.588Z,35.90
2023-05-09T18:01:48.057Z,36.00
2023-05-09T18:04:16.918Z,36.00
2023-05-09T18:06:45.424Z,36.10
2023-05-09T18:09:13.891Z,36.30
2023-05-09T18:11:43.720Z,36.20
2023-05-09T18:14:12.973Z,36.30
2023-05-09T18:16:41.744Z,36.30
2023-05-09T18:19:10.242Z,36.50
2023-05-09T18:21:38.813Z,36.40
2023-05-09T18:24:09.193Z,36.50
2023-05-09T18:26:38.044Z,36.60
2023-05-09T18:29:07.874Z,36.80
2023-05-09T18:31:38.983Z,36.90
2023-05-09T18:34:07.454Z,36.90
2023-05-09T18:36:36.173Z,37.20
2023-05-09T18:39:04.857Z,37.50
2023-05-09T18:41:34.340Z,37.60
2023-05-09T18:44:02.784Z,37.80
2023-05-09T18:46:33.933Z,38.00
2023-05-09T18:49:04.025Z,38.30
2023-05-09T18:51:34.103Z,38.50
2023-05-09T18:54:02.549Z,38.70
2023-05-09T18:56:31.248Z,38.80
2023-05-09T18:58:59.630Z,39.00
2023-05-09T19:01:28.118Z,39.10
2023-05-09T19:03:58.325Z,39.30
2023-05-09T19:06:27.103Z,39.40
2023-05-09T19:08:55.425Z,39.50
2023-05-09T19:11:23.862Z,39.70
2023-05-09T19:13:53.125Z,39.80
2023-05-09T19:16:22.595Z,39.90
2023-05-09T19:18:51.496Z,40.00
2023-05-09T19:21:21.379Z,40.00
2023-05-09T19:23:50.075Z,40.00
2023-05-09T19:26:18.904Z,40.10
2023-05-09T19:28:48.130Z,40.20
2023-05-09T19:31:18.998Z,40.20
2023-05-09T19:33:49.677Z,40.40
2023-05-09T19:36:19.012Z,40.50
2023-05-09T19:38:48.701Z,40.50
2023-05-09T19:41:17.276Z,40.50
2023-05-09T19:43:46.666Z,40.60
2023-05-09T19:46:15.159Z,40.60
2023-05-09T19:48:43.671Z,40.60
2023-05-09T19:51:14.284Z,40.60
2023-05-09T19:53:42.673Z,40.70
2023-05-09T19:56:12.803Z,40.70
2023-05-09T19:58:41.162Z,40.70
2023-05-09T20:01:09.773Z,40.90
2023-05-09T20:03:41.143Z,41.00
2023-05-09T20:06:09.608Z,41.10
2023-05-09T20:08:38.035Z,41.20
2023-05-09T20:11:07.448Z,41.20
2023-05-09T20:13:37.109Z,41.30
2023-05-09T20:16:05.597Z,41.30
2023-05-09T20:18:34.329Z,41.40
2023-05-09T20:21:03.190Z,41.50
2023-05-09T20:23:32.120Z,41.70
2023-05-09T20:26:01.449Z,41.80
2023-05-09T20:28:29.791Z,41.90
2023-05-09T20:30:59.481Z,42.00
2023-05-09T20:33:27.901Z,42.30
2023-05-09T20:35:56.509Z,42.40
2023-05-09T20:38:24.930Z,42.60
2023-05-09T20:40:53.308Z,42.80
2023-05-09T20:43:21.659Z,43.00
2023-05-09T20:45:50.183Z,43.20
2023-05-09T20:48:22.548Z,43.30
2023-05-09T20:50:51.085Z,43.50
2023-05-09T20:53:19.434Z,43.70
2023-05-09T20:55:50.226Z,43.70
2023-05-09T20:58:18.882Z,43.90
2023-05-09T21:00:47.668Z,44.00
2023-05-09T21:03:16.202Z,44.10
2023-05-09T21:05:45.829Z,44.20
2023-05-09T21:08:14.167Z,44.20
2023-05-09T21:10:42.546Z,44.40
2023-05-09T21:13:10.822Z,44.40
2023-05-09T21:15:39.189Z,44.60
2023-05-09T21:18:07.545Z,44.70
2023-05-09T21:20:35.956Z,44.80
2023-05-09T21:23:05.638Z,44.90
2023-05-09T21:25:33.995Z,45.00
2023-05-09T21:28:02.424Z,45.00
2023-05-09T21:30:30.831Z,45.10
2023-05-09T21:32:59.225Z,45.20
2023-05-09T21:35:27.564Z,45.20
2023-05-09T21:37:55.882Z,45.30
2023-05-09T21:40:25.618Z,45.30
2023-05-09T21:42:53.975Z,45.40
2023-05-09T21:45:22.292Z,45.50
2023-05-09T21:47:50.751Z,45.60
2023-05-09T21:50:19.277Z,45.60
2023-05-09T21:52:47.553Z,45.60
2023-05-09T21:55:16.303Z,45.60
2023-05-09T21:57:45.889Z,45.60
2023-05-09T22:00:15.548Z,45.50
2023-05-09T22:02:44.153Z,45.40
2023-05-09T22:05:13.164Z,45.40
2023-05-09T22:07:41.521Z,45.40
2023-05-09T22:10:10.800Z,45.40
2023-05-09T22:12:39.464Z,45.30
2023-05-09T22:15:09.856Z,45.20
2023-05-09T22:17:39.441Z,45.20
2023-05-09T22:20:09.242Z,45.10
2023-05-09T22:22:37.652Z,45.00
2023-05-09T22:25:06.553Z,45.00
2023-05-09T22:27:34.941Z,45.00
2023-05-09T22:30:03.664Z,45.00
2023-05-09T22:32:33.546Z,45.00
2023-05-09T22:35:02.405Z,45.00
2023-05-09T22:37:30.945Z,45.00
2023-05-09T22:40:01.517Z,45.00
2023-05-09T22:42:30.361Z,45.00
2023-05-09T22:44:59.103Z,45.00
2023-05-09T22:47:27.520Z,45.00
2023-05-09T22:49:57.380Z,45.00
2023-05-09T22:52:26.458Z,45.00
2023-05-09T22:54:54.956Z,44.90
2023-05-09T22:57:24.014Z,45.00
2023-05-09T22:59:53.324Z,45.00
2023-05-09T23:02:22.412Z,45.00
2023-05-09T23:04:50.953Z,45.00
2023-05-09T23:07:20.620Z,45.00
2023-05-09T23:09:52.073Z,45.00
2023-05-09T23:12:20.504Z,44.90
2023-05-09T23:14:48.939Z,45.00
2023-05-09T23:17:17.280Z,45.00
2023-05-09T23:19:46.417Z,45.00
2023-05-09T23:22:14.935Z,44.90
2023-05-09T23:24:44.644Z,45.00
2023-05-09T23:27:13.074Z,45.00
2023-05-09T23:29:41.489Z,45.00
2023-05-09T23:32:09.937Z,45.10
2023-05-09T23:34:39.269Z,45.20
2023-05-09T23:37:07.712Z,45.20
2023-05-09T23:39:36.628Z,45.40
2023-05-09T23:42:06.431Z,45.50
2023-05-09T23:44:35.375Z,45.60
2023-05-09T23:47:03.893Z,45.70
2023-05-09T23:49:32.353Z,45.90
2023-05-09T23:52:00.689Z,46.00
2023-05-09T23:54:29.105Z,46.00
2023-05-09T23:56:57.873Z,46.20
2023-05-09T23:59:27.613Z,46.30
